sensor_id;sensor_type;location;lat;lon;timestamp;pressure;altitude;pressure_sealevel;temperature;humidity
52591;BME280;38483;42.620;25.394;2024-03-02T00:02:15;96606.28;;;7.79;100.00
52591;BME280;38483;42.620;25.394;2024-03-02T00:04:44;96599.78;;;7.69;100.00
52591;BME280;38483;42.620;25.394;2024-03-02T00:07:14;96601.41;;;7.29;100.00
52591;BME280;38483;42.620;25.394;2024-03-02T00:09:40;96604.78;;;7.31;100.00
52591;BME280;38483;42.620;25.394;2024-03-02T00:12:08;96608.34;;;7.27;100.00
52591;BME280;38483;42.620;25.394;2024-03-02T00:14:35;96613.56;;;7.48;100.00
52591;BME280;38483;42.620;25.394;2024-03-02T00:17:02;96609.66;;;7.59;100.00
52591;BME280;38483;42.620;25.394;2024-03-02T00:19:29;96610.31;;;7.64;100.00
52591;BME280;38483;42.620;25.394;2024-03-02T00:21:56;96598.63;;;7.56;100.00
52591;BME280;38483;42.620;25.394;2024-03-02T00:24:34;96615.22;;;7.70;100.00
52591;BME280;38483;42.620;25.394;2024-03-02T00:27:03;96608.50;;;7.86;100.00
52591;BME280;38483;42.620;25.394;2024-03-02T00:29:31;96607.28;;;7.95;100.00
52591;BME280;38483;42.620;25.394;2024-03-02T00:31:58;96606.06;;;8.03;100.00
52591;BME280;38483;42.620;25.394;2024-03-02T00:34:25;96607.63;;;8.07;100.00
52591;BME280;38483;42.620;25.394;2024-03-02T00:36:52;96610.81;;;8.12;100.00
52591;BME280;38483;42.620;25.394;2024-03-02T00:39:19;96617.66;;;7.93;100.00
52591;BME280;38483;42.620;25.394;2024-03-02T00:41:46;96608.00;;;7.98;100.00
52591;BME280;38483;42.620;25.394;2024-03-02T00:44:15;96594.09;;;7.82;100.00
52591;BME280;38483;42.620;25.394;2024-03-02T00:46:42;96613.16;;;7.98;100.00
52591;BME280;38483;42.620;25.394;2024-03-02T00:49:19;96589.69;;;7.84;100.00
52591;BME280;38483;42.620;25.394;2024-03-02T00:51:48;96609.53;;;8.02;100.00
52591;BME280;38483;42.620;25.394;2024-03-02T00:54:20;96605.84;;;8.08;100.00
52591;BME280;38483;42.620;25.394;2024-03-02T00:56:48;96606.34;;;7.97;100.00
52591;BME280;38483;42.620;25.394;2024-03-02T00:59:15;96599.22;;;8.02;100.00
52591;BME280;38483;42.620;25.394;2024-03-02T01:01:42;96602.13;;;7.95;100.00
52591;BME280;38483;42.620;25.394;2024-03-02T01:04:10;96592.78;;;7.92;100.00
52591;BME280;38483;42.620;25.394;2024-03-02T01:06:37;96591.84;;;7.75;100.00
52591;BME280;38483;42.620;25.394;2024-03-02T01:09:04;96589.19;;;7.56;100.00
52591;BME280;38483;42.620;25.394;2024-03-02T01:11:31;96588.09;;;7.40;100.00
52591;BME280;38483;42.620;25.394;2024-03-02T01:13:58;96591.94;;;7.30;100.00
52591;BME280;38483;42.620;25.394;2024-03-02T01:16:25;96603.69;;;7.37;100.00
52591;BME280;38483;42.620;25.394;2024-03-02T01:18:52;96582.13;;;7.39;100.00
52591;BME280;38483;42.620;25.394;2024-03-02T01:21:19;96589.41;;;7.50;100.00
52591;BME280;38483;42.620;25.394;2024-03-02T01:23:46;96587.38;;;7.58;100.00
52591;BME280;38483;42.620;25.394;2024-03-02T01:26:13;96584.91;;;7.55;100.00
52591;BME280;38483;42.620;25.394;2024-03-02T01:28:40;96572.72;;;7.59;100.00
52591;BME280;38483;42.620;25.394;2024-03-02T01:31:07;96576.16;;;7.59;100.00
52591;BME280;38483;42.620;25.394;2024-03-02T01:33:34;96571.63;;;7.44;100.00
52591;BME280;38483;42.620;25.394;2024-03-02T01:36:01;96572.28;;;7.49;100.00
52591;BME280;38483;42.620;25.394;2024-03-02T01:38:28;96570.06;;;7.40;100.00
52591;BME280;38483;42.620;25.394;2024-03-02T01:40:55;96586.53;;;7.58;100.00
52591;BME280;38483;42.620;25.394;2024-03-02T01:43:23;96564.88;;;7.62;100.00
52591;BME280;38483;42.620;25.394;2024-03-02T01:45:50;96570.63;;;7.68;100.00
52591;BME280;38483;42.620;25.394;2024-03-02T01:48:18;96561.34;;;7.64;100.00
52591;BME280;38483;42.620;25.394;2024-03-02T01:50:45;96571.44;;;7.69;100.00
52591;BME280;38483;42.620;25.394;2024-03-02T01:53:12;96573.47;;;7.82;100.00
52591;BME280;38483;42.620;25.394;2024-03-02T01:55:39;96563.00;;;7.85;100.00
52591;BME280;38483;42.620;25.394;2024-03-02T01:58:06;96558.38;;;7.73;100.00
52591;BME280;38483;42.620;25.394;2024-03-02T02:00:33;96542.41;;;7.45;100.00
52591;BME280;38483;42.620;25.394;2024-03-02T02:03:00;96547.97;;;7.56;100.00
52591;BME280;38483;42.620;25.394;2024-03-02T02:05:27;96554.19;;;7.51;100.00
52591;BME280;38483;42.620;25.394;2024-03-02T02:07:55;96546.63;;;7.46;100.00
52591;BME280;38483;42.620;25.394;2024-03-02T02:10:22;96560.38;;;7.67;100.00
52591;BME280;38483;42.620;25.394;2024-03-02T02:12:49;96559.06;;;7.57;100.00
52591;BME280;38483;42.620;25.394;2024-03-02T02:15:26;96569.19;;;7.41;100.00
52591;BME280;38483;42.620;25.394;2024-03-02T02:17:54;96559.97;;;7.35;100.00
52591;BME280;38483;42.620;25.394;2024-03-02T02:20:42;96554.09;;;7.32;100.00
52591;BME280;38483;42.620;25.394;2024-03-02T02:23:09;96563.25;;;7.39;100.00
52591;BME280;38483;42.620;25.394;2024-03-02T02:25:36;96545.66;;;7.28;100.00
52591;BME280;38483;42.620;25.394;2024-03-02T02:28:04;96555.25;;;7.25;100.00
52591;BME280;38483;42.620;25.394;2024-03-02T02:30:32;96572.44;;;7.24;100.00
52591;BME280;38483;42.620;25.394;2024-03-02T02:32:59;96571.59;;;7.24;100.00
52591;BME280;38483;42.620;25.394;2024-03-02T02:35:26;96575.44;;;7.14;100.00
52591;BME280;38483;42.620;25.394;2024-03-02T02:37:55;96563.94;;;7.01;100.00
52591;BME280;38483;42.620;25.394;2024-03-02T02:40:23;96573.13;;;7.08;100.00
52591;BME280;38483;42.620;25.394;2024-03-02T02:42:50;96566.19;;;6.88;100.00
52591;BME280;38483;42.620;25.394;2024-03-02T02:45:21;96566.69;;;6.75;100.00
52591;BME280;38483;42.620;25.394;2024-03-02T02:47:48;96566.34;;;6.84;100.00
52591;BME280;38483;42.620;25.394;2024-03-02T02:50:15;96562.59;;;6.92;100.00
52591;BME280;38483;42.620;25.394;2024-03-02T02:52:43;96573.88;;;7.10;100.00
52591;BME280;38483;42.620;25.394;2024-03-02T02:55:11;96559.22;;;7.12;100.00
52591;BME280;38483;42.620;25.394;2024-03-02T02:57:40;96562.28;;;7.00;100.00
52591;BME280;38483;42.620;25.394;2024-03-02T03:00:13;96573.06;;;6.88;100.00
52591;BME280;38483;42.620;25.394;2024-03-02T03:02:47;96577.28;;;6.67;100.00
52591;BME280;38483;42.620;25.394;2024-03-02T03:05:16;96577.22;;;6.69;100.00
52591;BME280;38483;42.620;25.394;2024-03-02T03:07:44;96577.47;;;6.63;100.00
52591;BME280;38483;42.620;25.394;2024-03-02T03:10:12;96566.84;;;6.48;100.00
52591;BME280;38483;42.620;25.394;2024-03-02T03:12:40;96569.06;;;6.57;100.00
52591;BME280;38483;42.620;25.394;2024-03-02T03:15:10;96566.94;;;6.47;100.00
52591;BME280;38483;42.620;25.394;2024-03-02T03:17:38;96527.56;;;6.22;100.00
52591;BME280;38483;42.620;25.394;2024-03-02T03:20:05;96576.19;;;6.51;100.00
52591;BME280;38483;42.620;25.394;2024-03-02T03:22:33;96584.50;;;6.57;100.00
52591;BME280;38483;42.620;25.394;2024-03-02T03:25:00;96580.56;;;6.71;100.00
52591;BME280;38483;42.620;25.394;2024-03-02T03:27:27;96573.00;;;6.68;100.00
52591;BME280;38483;42.620;25.394;2024-03-02T03:29:54;96575.81;;;6.83;100.00
52591;BME280;38483;42.620;25.394;2024-03-02T03:32:22;96573.78;;;6.70;100.00
52591;BME280;38483;42.620;25.394;2024-03-02T03:34:49;96574.13;;;6.82;100.00
52591;BME280;38483;42.620;25.394;2024-03-02T03:37:16;96563.00;;;6.82;100.00
52591;BME280;38483;42.620;25.394;2024-03-02T03:39:43;96573.47;;;6.99;100.00
52591;BME280;38483;42.620;25.394;2024-03-02T03:42:10;96572.94;;;7.12;100.00
52591;BME280;38483;42.620;25.394;2024-03-02T03:44:37;96569.41;;;7.15;100.00
52591;BME280;38483;42.620;25.394;2024-03-02T03:47:04;96562.25;;;7.21;100.00
52591;BME280;38483;42.620;25.394;2024-03-02T03:49:31;96575.19;;;7.20;100.00
52591;BME280;38483;42.620;25.394;2024-03-02T03:51:58;96553.28;;;7.10;100.00
52591;BME280;38483;42.620;25.394;2024-03-02T03:54:25;96554.75;;;7.17;100.00
52591;BME280;38483;42.620;25.394;2024-03-02T03:56:52;96563.94;;;7.22;100.00
52591;BME280;38483;42.620;25.394;2024-03-02T03:59:19;96554.34;;;7.26;100.00
52591;BME280;38483;42.620;25.394;2024-03-02T04:01:46;96545.66;;;7.28;100.00
52591;BME280;38483;42.620;25.394;2024-03-02T04:04:13;96556.13;;;7.46;100.00
52591;BME280;38483;42.620;25.394;2024-03-02T04:06:40;96547.91;;;7.36;100.00
52591;BME280;38483;42.620;25.394;2024-03-02T04:09:07;96552.47;;;7.29;100.00
52591;BME280;38483;42.620;25.394;2024-03-02T04:11:34;96551.22;;;7.39;100.00
52591;BME280;38483;42.620;25.394;2024-03-02T04:14:01;96559.38;;;7.29;100.00
52591;BME280;38483;42.620;25.394;2024-03-02T04:16:28;96560.09;;;7.32;100.00
52591;BME280;38483;42.620;25.394;2024-03-02T04:18:55;96552.78;;;7.44;100.00
52591;BME280;38483;42.620;25.394;2024-03-02T04:21:22;96555.28;;;7.45;100.00
52591;BME280;38483;42.620;25.394;2024-03-02T04:23:49;96559.00;;;7.38;100.00
52591;BME280;38483;42.620;25.394;2024-03-02T04:26:16;96546.50;;;7.29;100.00
52591;BME280;38483;42.620;25.394;2024-03-02T04:28:48;96534.22;;;7.35;100.00
52591;BME280;38483;42.620;25.394;2024-03-02T04:31:15;96565.94;;;7.36;100.00
52591;BME280;38483;42.620;25.394;2024-03-02T04:33:43;96555.97;;;7.28;100.00
52591;BME280;38483;42.620;25.394;2024-03-02T04:36:10;96568.75;;;7.31;100.00
52591;BME280;38483;42.620;25.394;2024-03-02T04:38:38;96560.59;;;7.20;100.00
52591;BME280;38483;42.620;25.394;2024-03-02T04:41:05;96578.06;;;7.34;100.00
52591;BME280;38483;42.620;25.394;2024-03-02T04:43:35;96573.66;;;7.16;100.00
52591;BME280;38483;42.620;25.394;2024-03-02T04:46:02;96561.09;;;7.08;100.00
52591;BME280;38483;42.620;25.394;2024-03-02T04:48:29;96564.44;;;6.89;100.00
52591;BME280;38483;42.620;25.394;2024-03-02T04:50:56;96568.50;;;6.73;100.00
52591;BME280;38483;42.620;25.394;2024-03-02T04:53:23;96561.63;;;6.73;100.00
52591;BME280;38483;42.620;25.394;2024-03-02T04:55:50;96568.72;;;6.67;100.00
52591;BME280;38483;42.620;25.394;2024-03-02T04:58:36;96570.97;;;6.76;100.00
52591;BME280;38483;42.620;25.394;2024-03-02T05:01:03;96573.22;;;6.83;100.00
52591;BME280;38483;42.620;25.394;2024-03-02T05:03:30;96570.19;;;6.74;100.00
52591;BME280;38483;42.620;25.394;2024-03-02T05:05:57;96579.56;;;6.75;100.00
52591;BME280;38483;42.620;25.394;2024-03-02T05:08:24;96518.78;;;6.50;100.00
52591;BME280;38483;42.620;25.394;2024-03-02T05:10:51;96566.41;;;6.82;100.00
52591;BME280;38483;42.620;25.394;2024-03-02T05:13:18;96564.50;;;6.87;100.00
52591;BME280;38483;42.620;25.394;2024-03-02T05:15:45;96552.84;;;7.00;100.00
52591;BME280;38483;42.620;25.394;2024-03-02T05:18:12;96560.69;;;6.76;100.00
52591;BME280;38483;42.620;25.394;2024-03-02T05:20:39;96556.66;;;6.69;100.00
52591;BME280;38483;42.620;25.394;2024-03-02T05:23:06;96553.34;;;6.87;100.00
52591;BME280;38483;42.620;25.394;2024-03-02T05:25:33;96579.88;;;7.10;100.00
52591;BME280;38483;42.620;25.394;2024-03-02T05:28:02;96565.06;;;7.15;100.00
52591;BME280;38483;42.620;25.394;2024-03-02T05:30:29;96578.44;;;7.25;100.00
52591;BME280;38483;42.620;25.394;2024-03-02T05:32:56;96591.47;;;7.42;100.00
52591;BME280;38483;42.620;25.394;2024-03-02T05:35:23;96569.44;;;7.35;100.00
52591;BME280;38483;42.620;25.394;2024-03-02T05:37:50;96584.41;;;7.47;100.00
52591;BME280;38483;42.620;25.394;2024-03-02T05:40:17;96590.03;;;7.35;100.00
52591;BME280;38483;42.620;25.394;2024-03-02T05:42:46;96581.03;;;7.45;100.00
52591;BME280;38483;42.620;25.394;2024-03-02T05:45:14;96589.19;;;7.56;100.00
52591;BME280;38483;42.620;25.394;2024-03-02T05:47:43;96592.78;;;7.52;100.00
52591;BME280;38483;42.620;25.394;2024-03-02T05:50:10;96588.00;;;7.43;100.00
52591;BME280;38483;42.620;25.394;2024-03-02T05:52:37;96587.84;;;7.46;100.00
52591;BME280;38483;42.620;25.394;2024-03-02T05:55:04;96587.50;;;7.55;100.00
52591;BME280;38483;42.620;25.394;2024-03-02T05:57:31;96596.03;;;7.14;100.00
52591;BME280;38483;42.620;25.394;2024-03-02T06:00:12;96581.06;;;7.02;100.00
52591;BME280;38483;42.620;25.394;2024-03-02T06:02:40;96588.84;;;6.79;100.00
52591;BME280;38483;42.620;25.394;2024-03-02T06:05:07;96601.53;;;6.83;100.00
52591;BME280;38483;42.620;25.394;2024-03-02T06:07:34;96610.53;;;6.95;100.00
52591;BME280;38483;42.620;25.394;2024-03-02T06:10:01;96608.00;;;6.93;100.00
52591;BME280;38483;42.620;25.394;2024-03-02T06:12:31;96595.03;;;6.96;100.00
52591;BME280;38483;42.620;25.394;2024-03-02T06:14:58;96589.84;;;6.75;100.00
52591;BME280;38483;42.620;25.394;2024-03-02T06:17:25;96568.72;;;6.67;100.00
52591;BME280;38483;42.620;25.394;2024-03-02T06:19:52;96581.75;;;6.40;100.00
52591;BME280;38483;42.620;25.394;2024-03-02T06:22:19;96576.06;;;6.54;100.00
52591;BME280;38483;42.620;25.394;2024-03-02T06:24:46;96579.69;;;6.72;100.00
52591;BME280;38483;42.620;25.394;2024-03-02T06:27:13;96571.84;;;6.75;100.00
52591;BME280;38483;42.620;25.394;2024-03-02T06:29:40;96562.16;;;6.81;100.00
52591;BME280;38483;42.620;25.394;2024-03-02T06:32:07;96588.31;;;6.71;100.00
52591;BME280;38483;42.620;25.394;2024-03-02T06:34:34;96571.59;;;6.59;100.00
52591;BME280;38483;42.620;25.394;2024-03-02T06:37:01;96555.63;;;6.73;100.00
52591;BME280;38483;42.620;25.394;2024-03-02T06:39:29;96561.44;;;6.78;100.00
52591;BME280;38483;42.620;25.394;2024-03-02T06:41:57;96569.28;;;6.75;100.00
52591;BME280;38483;42.620;25.394;2024-03-02T06:44:24;96575.56;;;6.89;100.00
52591;BME280;38483;42.620;25.394;2024-03-02T06:46:51;96581.97;;;7.01;100.00
52591;BME280;38483;42.620;25.394;2024-03-02T06:49:18;96596.88;;;7.14;100.00
52591;BME280;38483;42.620;25.394;2024-03-02T06:51:45;96592.09;;;7.27;100.00
52591;BME280;38483;42.620;25.394;2024-03-02T06:54:12;96595.19;;;7.35;100.00
52591;BME280;38483;42.620;25.394;2024-03-02T06:56:39;96614.09;;;7.34;100.00
52591;BME280;38483;42.620;25.394;2024-03-02T06:59:06;96600.22;;;7.38;100.00
52591;BME280;38483;42.620;25.394;2024-03-02T07:01:34;96593.06;;;7.45;100.00
52591;BME280;38483;42.620;25.394;2024-03-02T07:04:01;96600.38;;;7.55;100.00
52591;BME280;38483;42.620;25.394;2024-03-02T07:06:28;96597.09;;;7.52;100.00
52591;BME280;38483;42.620;25.394;2024-03-02T07:08:55;96583.88;;;7.59;100.00
52591;BME280;38483;42.620;25.394;2024-03-02T07:11:22;96603.22;;;7.27;100.00
52591;BME280;38483;42.620;25.394;2024-03-02T07:13:49;96607.66;;;7.24;100.00
52591;BME280;38483;42.620;25.394;2024-03-02T07:16:16;96587.28;;;7.18;100.00
52591;BME280;38483;42.620;25.394;2024-03-02T07:18:56;96552.19;;;6.74;100.00
52591;BME280;38483;42.620;25.394;2024-03-02T07:21:24;96595.81;;;6.98;100.00
52591;BME280;38483;42.620;25.394;2024-03-02T07:23:51;96562.59;;;6.92;100.00
52591;BME280;38483;42.620;25.394;2024-03-02T07:26:18;96568.94;;;7.25;100.00
52591;BME280;38483;42.620;25.394;2024-03-02T07:28:48;96562.22;;;7.23;100.00
52591;BME280;38483;42.620;25.394;2024-03-02T07:31:16;96543.41;;;7.21;100.00
52591;BME280;38483;42.620;25.394;2024-03-02T07:33:46;96547.09;;;7.35;100.00
52591;BME280;38483;42.620;25.394;2024-03-02T07:36:15;96545.22;;;7.59;100.00
52591;BME280;38483;42.620;25.394;2024-03-02T07:38:42;96554.84;;;7.76;100.00
52591;BME280;38483;42.620;25.394;2024-03-02T07:41:12;96563.09;;;7.64;100.00
52591;BME280;38483;42.620;25.394;2024-03-02T07:43:39;96576.22;;;7.78;100.00
52591;BME280;38483;42.620;25.394;2024-03-02T07:46:06;96577.97;;;7.77;100.00
52591;BME280;38483;42.620;25.394;2024-03-02T07:48:33;96573.31;;;7.85;100.00
52591;BME280;38483;42.620;25.394;2024-03-02T07:51:01;96552.94;;;7.79;100.00
52591;BME280;38483;42.620;25.394;2024-03-02T07:53:29;96576.16;;;7.99;100.00
52591;BME280;38483;42.620;25.394;2024-03-02T07:55:56;96590.59;;;8.03;100.00
52591;BME280;38483;42.620;25.394;2024-03-02T07:58:29;96600.84;;;8.25;100.00
52591;BME280;38483;42.620;25.394;2024-03-02T08:00:57;96580.53;;;8.17;100.00
52591;BME280;38483;42.620;25.394;2024-03-02T08:03:24;96571.50;;;8.07;100.00
52591;BME280;38483;42.620;25.394;2024-03-02T08:05:51;96581.91;;;8.24;100.00
52591;BME280;38483;42.620;25.394;2024-03-02T08:08:18;96565.59;;;8.05;99.85
52591;BME280;38483;42.620;25.394;2024-03-02T08:10:45;96548.00;;;7.95;100.00
52591;BME280;38483;42.620;25.394;2024-03-02T08:13:12;96571.63;;;8.04;100.00
52591;BME280;38483;42.620;25.394;2024-03-02T08:15:40;96505.03;;;7.75;100.00
52591;BME280;38483;42.620;25.394;2024-03-02T08:18:07;96562.84;;;8.08;99.86
52591;BME280;38483;42.620;25.394;2024-03-02T08:20:34;96588.72;;;8.27;99.68
52591;BME280;38483;42.620;25.394;2024-03-02T08:23:01;96576.38;;;8.34;99.51
52591;BME280;38483;42.620;25.394;2024-03-02T08:25:28;96587.91;;;8.45;98.88
52591;BME280;38483;42.620;25.394;2024-03-02T08:27:56;96590.63;;;8.42;97.74
52591;BME280;38483;42.620;25.394;2024-03-02T08:30:24;96569.03;;;8.45;97.95
52591;BME280;38483;42.620;25.394;2024-03-02T08:32:51;96569.78;;;8.47;96.72
52591;BME280;38483;42.620;25.394;2024-03-02T08:35:19;96580.63;;;8.53;96.81
52591;BME280;38483;42.620;25.394;2024-03-02T08:37:46;96573.13;;;8.67;96.58
52591;BME280;38483;42.620;25.394;2024-03-02T08:40:13;96584.56;;;8.62;97.44
52591;BME280;38483;42.620;25.394;2024-03-02T08:42:44;96582.34;;;8.73;97.56
52591;BME280;38483;42.620;25.394;2024-03-02T08:45:12;96574.09;;;8.65;96.77
52591;BME280;38483;42.620;25.394;2024-03-02T08:47:39;96576.88;;;8.79;96.44
52591;BME280;38483;42.620;25.394;2024-03-02T08:50:07;96573.06;;;8.50;96.62
52591;BME280;38483;42.620;25.394;2024-03-02T08:52:35;96600.22;;;8.18;98.06
52591;BME280;38483;42.620;25.394;2024-03-02T08:55:02;96593.16;;;8.23;99.29
52591;BME280;38483;42.620;25.394;2024-03-02T08:57:30;96578.28;;;8.30;99.87
52591;BME280;38483;42.620;25.394;2024-03-02T08:59:57;96578.41;;;8.27;100.00
52591;BME280;38483;42.620;25.394;2024-03-02T09:02:24;96559.97;;;8.35;99.66
52591;BME280;38483;42.620;25.394;2024-03-02T09:04:51;96562.06;;;8.27;99.64
52591;BME280;38483;42.620;25.394;2024-03-02T09:07:19;96559.38;;;8.09;100.00
52591;BME280;38483;42.620;25.394;2024-03-02T09:09:46;96564.88;;;8.20;100.00
52591;BME280;38483;42.620;25.394;2024-03-02T09:12:13;96565.31;;;8.32;99.59
52591;BME280;38483;42.620;25.394;2024-03-02T09:14:40;96583.72;;;8.43;99.89
52591;BME280;38483;42.620;25.394;2024-03-02T09:17:08;96588.19;;;8.58;99.56
52591;BME280;38483;42.620;25.394;2024-03-02T09:19:37;96550.59;;;8.71;98.28
52591;BME280;38483;42.620;25.394;2024-03-02T09:22:05;96571.16;;;8.91;96.47
52591;BME280;38483;42.620;25.394;2024-03-02T09:24:32;96569.91;;;8.81;96.63
52591;BME280;38483;42.620;25.394;2024-03-02T09:27:02;96555.97;;;8.66;97.25
52591;BME280;38483;42.620;25.394;2024-03-02T09:29:29;96561.75;;;8.53;98.45
52591;BME280;38483;42.620;25.394;2024-03-02T09:31:56;96569.72;;;8.67;99.06
52591;BME280;38483;42.620;25.394;2024-03-02T09:34:23;96577.56;;;8.82;98.24
52591;BME280;38483;42.620;25.394;2024-03-02T09:36:51;96580.09;;;9.02;97.37
52591;BME280;38483;42.620;25.394;2024-03-02T09:39:18;96528.66;;;8.98;95.14
52591;BME280;38483;42.620;25.394;2024-03-02T09:41:47;96562.81;;;9.03;94.31
52591;BME280;38483;42.620;25.394;2024-03-02T09:44:14;96587.00;;;9.19;94.75
52591;BME280;38483;42.620;25.394;2024-03-02T09:46:41;96540.69;;;9.16;94.19
52591;BME280;38483;42.620;25.394;2024-03-02T09:49:11;96538.84;;;9.18;94.35
52591;BME280;38483;42.620;25.394;2024-03-02T09:51:38;96555.19;;;9.36;94.39
52591;BME280;38483;42.620;25.394;2024-03-02T09:54:07;96536.91;;;9.57;92.01
52591;BME280;38483;42.620;25.394;2024-03-02T09:56:47;96523.06;;;9.58;91.96
52591;BME280;38483;42.620;25.394;2024-03-02T09:59:14;96528.22;;;9.58;91.54
52591;BME280;38483;42.620;25.394;2024-03-02T10:02:00;96537.22;;;9.68;90.34
52591;BME280;38483;42.620;25.394;2024-03-02T10:04:29;96523.81;;;9.60;91.75
52591;BME280;38483;42.620;25.394;2024-03-02T10:07:15;96552.03;;;9.65;90.41
52591;BME280;38483;42.620;25.394;2024-03-02T10:09:46;96556.38;;;9.47;90.85
52591;BME280;38483;42.620;25.394;2024-03-02T10:12:15;96562.13;;;9.52;91.28
52591;BME280;38483;42.620;25.394;2024-03-02T10:14:43;96548.16;;;9.73;90.56
52591;BME280;38483;42.620;25.394;2024-03-02T10:17:11;96545.38;;;9.94;88.96
52591;BME280;38483;42.620;25.394;2024-03-02T10:19:39;96537.50;;;9.62;90.35
52591;BME280;38483;42.620;25.394;2024-03-02T10:22:08;96539.09;;;9.65;89.91
52591;BME280;38483;42.620;25.394;2024-03-02T10:24:37;96543.69;;;9.60;90.00
52591;BME280;38483;42.620;25.394;2024-03-02T10:27:15;96537.81;;;9.73;89.74
52591;BME280;38483;42.620;25.394;2024-03-02T10:29:46;96541.91;;;9.95;88.04
52591;BME280;38483;42.620;25.394;2024-03-02T10:32:13;96542.66;;;10.14;87.92
52591;BME280;38483;42.620;25.394;2024-03-02T10:34:41;96543.72;;;10.42;87.43
52591;BME280;38483;42.620;25.394;2024-03-02T10:37:28;96543.03;;;10.39;87.18
52591;BME280;38483;42.620;25.394;2024-03-02T10:40:49;96556.97;;;10.36;86.85
52591;BME280;38483;42.620;25.394;2024-03-02T10:44:09;96551.22;;;10.47;86.95
52591;BME280;38483;42.620;25.394;2024-03-02T10:47:30;96544.53;;;10.10;87.85
52591;BME280;38483;42.620;25.394;2024-03-02T10:50:51;96541.91;;;10.12;89.50
52591;BME280;38483;42.620;25.394;2024-03-02T10:54:11;96541.25;;;10.07;90.40
52591;BME280;38483;42.620;25.394;2024-03-02T10:57:45;96539.56;;;10.06;91.93
52591;BME280;38483;42.620;25.394;2024-03-02T11:00:44;96531.16;;;10.02;91.91
52591;BME280;38483;42.620;25.394;2024-03-02T11:03:13;96534.91;;;9.97;91.44
52591;BME280;38483;42.620;25.394;2024-03-02T11:05:44;96519.13;;;9.68;92.12
52591;BME280;38483;42.620;25.394;2024-03-02T11:08:32;96513.69;;;9.73;92.76
52591;BME280;38483;42.620;25.394;2024-03-02T11:12:00;96515.94;;;10.13;91.35
52591;BME280;38483;42.620;25.394;2024-03-02T11:15:18;96522.97;;;10.27;88.87
52591;BME280;38483;42.620;25.394;2024-03-02T11:18:39;96519.00;;;10.52;87.86
52591;BME280;38483;42.620;25.394;2024-03-02T11:22:01;96508.97;;;10.62;87.12
52591;BME280;38483;42.620;25.394;2024-03-02T11:25:27;96510.91;;;10.58;87.20
52591;BME280;38483;42.620;25.394;2024-03-02T11:28:44;96501.13;;;10.79;86.54
52591;BME280;38483;42.620;25.394;2024-03-02T11:32:17;96506.66;;;10.73;86.82
52591;BME280;38483;42.620;25.394;2024-03-02T11:35:35;96502.38;;;10.72;86.04
52591;BME280;38483;42.620;25.394;2024-03-02T11:38:55;96496.53;;;10.69;85.29
52591;BME280;38483;42.620;25.394;2024-03-02T11:42:16;96494.53;;;10.74;84.82
52591;BME280;38483;42.620;25.394;2024-03-02T11:45:37;96498.28;;;10.68;85.09
52591;BME280;38483;42.620;25.394;2024-03-02T11:48:59;96477.00;;;10.32;86.12
52591;BME280;38483;42.620;25.394;2024-03-02T11:52:18;96486.09;;;10.70;85.71
52591;BME280;38483;42.620;25.394;2024-03-02T11:55:39;96489.66;;;10.99;84.55
52591;BME280;38483;42.620;25.394;2024-03-02T11:59:01;96479.88;;;10.88;84.27
52591;BME280;38483;42.620;25.394;2024-03-02T12:02:02;96479.13;;;11.02;84.02
52591;BME280;38483;42.620;25.394;2024-03-02T12:04:30;96467.81;;;11.18;82.58
52591;BME280;38483;42.620;25.394;2024-03-02T12:07:01;96467.97;;;11.15;82.84
52591;BME280;38483;42.620;25.394;2024-03-02T12:09:28;96471.25;;;11.03;82.91
52591;BME280;38483;42.620;25.394;2024-03-02T12:12:08;96460.66;;;10.92;84.23
52591;BME280;38483;42.620;25.394;2024-03-02T12:14:37;96462.97;;;11.12;82.99
52591;BME280;38483;42.620;25.394;2024-03-02T12:17:05;96455.28;;;11.55;81.43
52591;BME280;38483;42.620;25.394;2024-03-02T12:19:33;96453.44;;;11.57;80.03
52591;BME280;38483;42.620;25.394;2024-03-02T12:22:00;96447.56;;;11.69;79.27
52591;BME280;38483;42.620;25.394;2024-03-02T12:24:29;96447.03;;;11.78;79.55
52591;BME280;38483;42.620;25.394;2024-03-02T12:26:57;96452.38;;;11.75;80.04
52591;BME280;38483;42.620;25.394;2024-03-02T12:29:24;96443.31;;;11.68;79.74
52591;BME280;38483;42.620;25.394;2024-03-02T12:31:52;96449.13;;;11.99;79.26
52591;BME280;38483;42.620;25.394;2024-03-02T12:34:21;96439.69;;;11.98;78.77
52591;BME280;38483;42.620;25.394;2024-03-02T12:36:49;96436.25;;;11.98;78.02
52591;BME280;38483;42.620;25.394;2024-03-02T12:39:20;96461.09;;;12.16;78.72
52591;BME280;38483;42.620;25.394;2024-03-02T12:41:47;96448.88;;;12.04;78.48
52591;BME280;38483;42.620;25.394;2024-03-02T12:44:17;96447.38;;;12.00;78.67
52591;BME280;38483;42.620;25.394;2024-03-02T12:46:46;96452.75;;;12.25;77.36
52591;BME280;38483;42.620;25.394;2024-03-02T12:49:16;96457.91;;;12.39;78.49
52591;BME280;38483;42.620;25.394;2024-03-02T12:51:43;96456.25;;;12.38;78.20
52591;BME280;38483;42.620;25.394;2024-03-02T12:54:11;96399.19;;;11.96;77.70
52591;BME280;38483;42.620;25.394;2024-03-02T12:56:40;96455.94;;;12.43;77.79
52591;BME280;38483;42.620;25.394;2024-03-02T12:59:07;96468.47;;;12.50;77.57
52591;BME280;38483;42.620;25.394;2024-03-02T13:01:34;96449.78;;;12.17;78.50
52591;BME280;38483;42.620;25.394;2024-03-02T13:04:02;96456.72;;;12.31;77.82
52591;BME280;38483;42.620;25.394;2024-03-02T13:06:32;96441.44;;;12.12;78.70
52591;BME280;38483;42.620;25.394;2024-03-02T13:09:00;96459.63;;;12.26;78.79
52591;BME280;38483;42.620;25.394;2024-03-02T13:11:27;96463.16;;;12.11;79.09
52591;BME280;38483;42.620;25.394;2024-03-02T13:13:54;96467.41;;;11.98;79.75
52591;BME280;38483;42.620;25.394;2024-03-02T13:16:22;96459.91;;;12.07;79.41
52591;BME280;38483;42.620;25.394;2024-03-02T13:18:58;96467.03;;;12.18;79.23